createdAt,value
2022-07-25T00:01:20.694Z,8.40
2022-07-25T00:03:48.736Z,8.60
2022-07-25T00:06:17.768Z,8.30
2022-07-25T00:08:46.054Z,8.53
2022-07-25T00:11:15.248Z,8.60
2022-07-25T00:13:43.061Z,8.53
2022-07-25T00:16:11.271Z,8.80
2022-07-25T00:18:39.211Z,8.70
2022-07-25T00:21:07.373Z,8.97
2022-07-25T00:23:35.266Z,8.53
2022-07-25T00:26:03.064Z,9.03
2022-07-25T00:28:32.245Z,8.77
2022-07-25T00:31:00.167Z,8.80
2022-07-25T00:33:28.183Z,8.97
2022-07-25T00:35:56.051Z,9.10
2022-07-25T00:38:23.958Z,8.70
2022-07-25T00:40:54.344Z,8.77
2022-07-25T00:43:23.752Z,9.33
2022-07-25T00:45:52.994Z,9.13
2022-07-25T00:48:21.143Z,8.90
2022-07-25T00:50:49.219Z,8.87
2022-07-25T00:53:17.314Z,8.90
2022-07-25T00:55:45.212Z,8.97
2022-07-25T00:58:13.768Z,8.77
2022-07-25T01:00:41.741Z,8.87
2022-07-25T01:03:11.100Z,9.07
2022-07-25T01:05:39.166Z,8.73
2022-07-25T01:08:07.400Z,9.63
2022-07-25T01:10:36.133Z,9.07
2022-07-25T01:13:04.082Z,9.17
2022-07-25T01:15:32.219Z,9.03
2022-07-25T01:18:00.149Z,9.37
2022-07-25T01:20:31.902Z,9.00
2022-07-25T01:23:01.279Z,8.80
2022-07-25T01:25:29.624Z,9.10
2022-07-25T01:27:57.851Z,9.07
2022-07-25T01:30:26.360Z,9.37
2022-07-25T01:32:54.491Z,9.80
2022-07-25T01:35:22.338Z,8.93
2022-07-25T01:37:51.534Z,9.40
2022-07-25T01:40:19.396Z,9.80
2022-07-25T01:42:47.475Z,9.77
2022-07-25T01:45:15.615Z,9.63
2022-07-25T01:47:43.478Z,9.43
2022-07-25T01:50:11.718Z,9.43
2022-07-25T01:52:40.412Z,9.50
2022-07-25T01:55:10.628Z,9.90
2022-07-25T01:57:39.286Z,9.93
2022-07-25T02:00:11.854Z,9.57
2022-07-25T02:02:39.682Z,9.87
2022-07-25T02:05:08.321Z,10.33
2022-07-25T02:07:36.242Z,10.13
2022-07-25T02:10:05.832Z,9.97
2022-07-25T02:12:35.202Z,9.53
2022-07-25T02:15:03.123Z,10.27
2022-07-25T02:17:31.151Z,10.00
2022-07-25T02:19:59.067Z,10.37
2022-07-25T02:22:26.856Z,9.70
2022-07-25T02:24:54.674Z,9.60
2022-07-25T02:27:22.539Z,9.47
2022-07-25T02:29:51.791Z,9.77
2022-07-25T02:32:19.781Z,9.90
2022-07-25T02:34:47.631Z,9.97
2022-07-25T02:37:16.536Z,10.00
2022-07-25T02:39:44.362Z,9.67
2022-07-25T02:42:12.237Z,10.03
2022-07-25T02:44:40.066Z,9.80
2022-07-25T02:47:09.279Z,9.73
2022-07-25T02:49:37.180Z,9.23
2022-07-25T02:52:05.528Z,9.60
2022-07-25T02:54:33.412Z,9.43
2022-07-25T02:57:01.226Z,9.60
2022-07-25T02:59:32.422Z,10.07
2022-07-25T03:02:00.759Z,10.23
2022-07-25T03:04:31.115Z,9.80
2022-07-25T03:06:59.020Z,9.27
2022-07-25T03:09:26.804Z,9.70
2022-07-25T03:11:54.664Z,9.30
2022-07-25T03:14:22.539Z,9.70
2022-07-25T03:16:51.551Z,9.00
2022-07-25T03:19:19.455Z,9.67
2022-07-25T03:21:48.637Z,9.80
2022-07-25T03:24:16.538Z,9.77
2022-07-25T03:26:45.488Z,9.90
2022-07-25T03:29:13.375Z,9.43
2022-07-25T03:31:41.307Z,10.70
2022-07-25T03:34:09.521Z,9.40
2022-07-25T03:36:37.627Z,9.53
2022-07-25T03:39:06.838Z,9.80
2022-07-25T03:41:34.818Z,9.03
2022-07-25T03:44:02.971Z,9.80
2022-07-25T03:46:31.135Z,10.20
2022-07-25T03:48:59.090Z,9.77
2022-07-25T03:51:27.111Z,9.63
2022-07-25T03:54:04.495Z,9.57
2022-07-25T03:56:41.538Z,9.83
2022-07-25T03:59:13.702Z,9.17
2022-07-25T04:01:42.213Z,8.87
2022-07-25T04:04:10.906Z,9.90
2022-07-25T04:06:39.553Z,9.87
2022-07-25T04:09:08.733Z,9.00
2022-07-25T04:11:38.414Z,9.37
2022-07-25T04:14:07.100Z,9.83
2022-07-25T04:16:35.977Z,9.40
2022-07-25T04:19:06.232Z,9.30
2022-07-25T04:21:34.538Z,9.50
2022-07-25T04:24:02.632Z,10.17
2022-07-25T04:26:30.654Z,9.20
2022-07-25T04:29:03.298Z,9.23
2022-07-25T04:31:31.587Z,9.63
2022-07-25T04:33:59.911Z,9.73
2022-07-25T04:36:27.821Z,10.47
2022-07-25T04:38:55.653Z,10.33
2022-07-25T04:41:23.516Z,10.03
2022-07-25T04:43:51.380Z,9.93
2022-07-25T04:46:21.501Z,9.80
2022-07-25T04:48:49.971Z,9.90
2022-07-25T04:51:18.024Z,10.40
2022-07-25T04:53:45.991Z,9.80
2022-07-25T04:56:14.109Z,9.73
2022-07-25T04:58:41.964Z,10.57
2022-07-25T05:01:09.935Z,10.00
2022-07-25T05:03:39.285Z,9.77
2022-07-25T05:06:07.789Z,9.60
2022-07-25T05:08:35.602Z,9.97
2022-07-25T05:11:03.416Z,10.30
2022-07-25T05:13:31.293Z,9.40
2022-07-25T05:15:59.202Z,10.07
2022-07-25T05:18:27.076Z,9.43
2022-07-25T05:20:56.490Z,9.83
2022-07-25T05:23:24.285Z,10.00
2022-07-25T05:25:52.140Z,10.00
2022-07-25T05:28:19.918Z,9.43
2022-07-25T05:30:47.715Z,9.70
2022-07-25T05:33:15.610Z,9.70
2022-07-25T05:35:43.603Z,9.17
2022-07-25T05:38:12.805Z,8.93
2022-07-25T05:40:40.692Z,9.33
2022-07-25T05:43:08.926Z,9.20
2022-07-25T05:45:36.751Z,9.23
2022-07-25T05:48:04.751Z,9.70
2022-07-25T05:50:32.625Z,9.30
2022-07-25T05:53:00.467Z,9.30
2022-07-25T05:55:29.787Z,9.27
2022-07-25T05:57:58.731Z,9.20
2022-07-25T06:00:26.969Z,10.37
2022-07-25T06:02:54.947Z,9.20
2022-07-25T06:05:23.115Z,8.60
2022-07-25T06:07:50.952Z,9.13
2022-07-25T06:10:19.008Z,9.27
2022-07-25T06:12:48.240Z,9.20
2022-07-25T06:15:23.074Z,8.83
2022-07-25T06:17:55.137Z,9.17
2022-07-25T06:20:23.127Z,8.67
2022-07-25T06:22:51.206Z,9.40
2022-07-25T06:25:19.025Z,9.13
2022-07-25T06:27:50.486Z,8.73
2022-07-25T06:30:20.618Z,8.73
2022-07-25T06:32:48.904Z,8.63
2022-07-25T06:35:17.387Z,9.07
2022-07-25T06:37:45.230Z,9.07
2022-07-25T06:40:13.742Z,8.67
2022-07-25T06:42:42.969Z,9.50
2022-07-25T06:45:12.505Z,8.63
2022-07-25T06:47:43.582Z,8.17
2022-07-25T06:50:15.580Z,8.90
2022-07-25T06:52:43.715Z,8.40
2022-07-25T06:55:12.982Z,7.97
2022-07-25T06:57:42.419Z,8.53
2022-07-25T07:00:12.973Z,9.00
2022-07-25T07:02:52.172Z,8.50
2022-07-25T07:05:20.421Z,8.27
2022-07-25T07:07:48.448Z,8.47
2022-07-25T07:10:16.919Z,8.83
2022-07-25T07:12:45.317Z,8.33
2022-07-25T07:15:13.682Z,8.63
2022-07-25T07:17:41.841Z,8.97
2022-07-25T07:20:11.960Z,8.63
2022-07-25T07:22:46.423Z,8.30
2022-07-25T07:25:15.822Z,8.67
2022-07-25T07:27:44.445Z,8.47
2022-07-25T07:30:14.791Z,8.33
2022-07-25T07:32:42.825Z,8.67
2022-07-25T07:35:13.062Z,9.10
2022-07-25T07:37:43.575Z,8.30
2022-07-25T07:40:17.694Z,8.70
2022-07-25T07:42:48.424Z,8.30
2022-07-25T07:45:17.868Z,8.23
2022-07-25T07:47:47.994Z,8.27
2022-07-25T07:50:19.397Z,8.10
2022-07-25T07:52:47.779Z,8.43
2022-07-25T07:55:33.870Z,9.03
2022-07-25T07:58:02.508Z,8.80
2022-07-25T08:00:31.972Z,8.37
2022-07-25T08:03:00.563Z,8.50
2022-07-25T08:05:32.364Z,8.60
2022-07-25T08:08:01.426Z,8.40
2022-07-25T08:10:31.212Z,8.47
2022-07-25T08:13:00.080Z,8.70
2022-07-25T08:15:28.251Z,8.60
2022-07-25T08:17:56.509Z,8.50
2022-07-25T08:20:39.677Z,8.87
2022-07-25T08:23:11.084Z,8.90
2022-07-25T08:25:39.276Z,8.03
2022-07-25T08:28:07.430Z,8.50
2022-07-25T08:30:37.772Z,8.13
2022-07-25T08:33:09.706Z,8.50
2022-07-25T08:35:38.575Z,7.50
2022-07-25T08:38:06.808Z,7.73
2022-07-25T08:40:36.190Z,8.13
2022-07-25T08:43:05.646Z,7.93
2022-07-25T08:45:34.069Z,8.20
2022-07-25T08:48:01.940Z,7.97
2022-07-25T08:50:31.017Z,7.80
2022-07-25T08:53:31.022Z,8.27
2022-07-25T08:55:48.306Z,7.83
2022-07-25T08:58:17.432Z,7.70
2022-07-25T09:00:45.733Z,7.90
2022-07-25T09:03:13.867Z,8.17
2022-07-25T09:05:42.429Z,7.30
2022-07-25T09:08:12.064Z,7.47
2022-07-25T09:10:42.364Z,7.67
2022-07-25T09:13:14.909Z,7.43
2022-07-25T09:15:46.400Z,7.23
2022-07-25T09:18:17.117Z,8.00
2022-07-25T09:20:48.162Z,7.43
2022-07-25T09:23:28.148Z,7.13
2022-07-25T09:26:04.532Z,7.17
2022-07-25T09:28:33.971Z,7.60
2022-07-25T09:31:03.095Z,7.40
2022-07-25T09:33:31.312Z,7.37
2022-07-25T09:35:59.389Z,6.90
2022-07-25T09:38:27.975Z,6.90
2022-07-25T09:40:58.173Z,6.43
2022-07-25T09:43:37.989Z,6.10
2022-07-25T09:46:06.886Z,6.40
2022-07-25T09:48:35.394Z,6.90
2022-07-25T09:51:03.509Z,6.87
2022-07-25T09:53:31.495Z,7.13
2022-07-25T09:55:59.461Z,6.23
2022-07-25T09:58:28.051Z,6.67
2022-07-25T10:01:01.929Z,6.90
2022-07-25T10:03:43.421Z,6.50
2022-07-25T10:06:20.680Z,6.03
2022-07-25T10:08:50.047Z,6.77
2022-07-25T10:11:22.793Z,6.20
2022-07-25T10:13:51.015Z,5.87
2022-07-25T10:16:21.477Z,5.93
2022-07-25T10:18:51.447Z,6.33
2022-07-25T10:21:26.936Z,6.27
2022-07-25T10:24:00.772Z,6.70
2022-07-25T10:26:28.715Z,6.23
2022-07-25T10:28:57.126Z,6.37
2022-07-25T10:31:34.871Z,6.00
2022-07-25T10:34:06.357Z,6.30
2022-07-25T10:36:46.159Z,6.27
2022-07-25T10:39:15.897Z,6.23
2022-07-25T10:41:46.352Z,5.70
2022-07-25T10:44:16.225Z,5.50
2022-07-25T10:46:46.145Z,4.87
2022-07-25T10:49:21.807Z,4.70
2022-07-25T10:51:57.616Z,4.60
2022-07-25T10:54:26.146Z,4.57
2022-07-25T10:56:58.676Z,4.53
2022-07-25T10:59:31.574Z,4.70
2022-07-25T11:02:01.600Z,4.70
2022-07-25T11:04:30.136Z,4.77
2022-07-25T11:06:58.462Z,4.50
2022-07-25T11:09:28.476Z,4.67
2022-07-25T11:11:58.638Z,4.97
2022-07-25T11:14:31.221Z,4.20
2022-07-25T11:17:13.199Z,4.30
2022-07-25T11:19:41.972Z,4.60
2022-07-25T11:22:10.794Z,4.40
2022-07-25T11:24:40.706Z,4.57
2022-07-25T11:27:12.754Z,4.37
2022-07-25T11:29:41.734Z,4.67
2022-07-25T11:32:12.718Z,4.53
2022-07-25T11:34:43.756Z,4.20
2022-07-25T11:37:14.416Z,3.77
2022-07-25T11:39:44.657Z,3.80
2022-07-25T11:42:16.316Z,4.47
2022-07-25T11:44:48.029Z,4.20
2022-07-25T11:47:28.586Z,4.30
2022-07-25T11:49:58.355Z,3.80
2022-07-25T11:52:29.738Z,4.07
2022-07-25T11:54:59.116Z,3.97
2022-07-25T11:57:28.995Z,4.10
2022-07-25T11:59:57.460Z,3.73
2022-07-25T12:02:30.894Z,3.80
2022-07-25T12:05:01.412Z,4.50
2022-07-25T12:07:47.820Z,4.07
2022-07-25T12:10:17.558Z,4.25
2022-07-25T12:12:48.599Z,4.40
2022-07-25T12:15:19.029Z,4.37
2022-07-25T12:17:48.458Z,4.60
2022-07-25T12:20:17.490Z,4.27
2022-07-25T12:22:46.163Z,4.30
2022-07-25T12:25:14.136Z,4.30
2022-07-25T12:27:42.929Z,4.50
2022-07-25T12:30:12.427Z,4.63
2022-07-25T12:32:40.329Z,4.80
2022-07-25T12:35:11.559Z,4.63
2022-07-25T12:37:41.313Z,4.37
2022-07-25T12:40:10.341Z,4.60
2022-07-25T12:42:38.159Z,4.50
2022-07-25T12:45:07.716Z,4.43
2022-07-25T12:47:36.038Z,4.68
2022-07-25T12:50:05.239Z,4.87
2022-07-25T12:52:34.805Z,4.90
2022-07-25T12:55:03.097Z,4.63
2022-07-25T12:57:30.942Z,4.43
2022-07-25T12:59:58.902Z,4.37
2022-07-25T13:02:26.864Z,4.63
2022-07-25T13:04:54.727Z,5.00
2022-07-25T13:07:22.667Z,4.73
2022-07-25T13:09:51.965Z,4.70
2022-07-25T13:12:19.752Z,4.77
2022-07-25T13:14:47.869Z,4.95
2022-07-25T13:17:15.745Z,5.20
2022-07-25T13:19:43.585Z,4.60
2022-07-25T13:22:11.519Z,5.10
2022-07-25T13:24:40.352Z,4.90
2022-07-25T13:27:09.743Z,5.28
2022-07-25T13:29:37.660Z,5.10
2022-07-25T13:32:06.512Z,5.07
2022-07-25T13:34:34.417Z,4.87
2022-07-25T13:37:02.318Z,4.83
2022-07-25T13:39:30.129Z,4.83
2022-07-25T13:41:58.005Z,4.73
2022-07-25T13:44:27.213Z,5.17
2022-07-25T13:46:55.093Z,4.60
2022-07-25T13:49:22.987Z,4.63
2022-07-25T13:51:50.953Z,5.00
2022-07-25T13:54:18.845Z,4.87
2022-07-25T13:56:47.447Z,4.50
2022-07-25T13:59:20.943Z,4.50
2022-07-25T14:01:50.897Z,4.17
2022-07-25T14:04:19.627Z,4.90
2022-07-25T14:06:51.754Z,4.80
2022-07-25T14:09:20.699Z,4.07
2022-07-25T14:11:49.216Z,4.50
2022-07-25T14:14:17.129Z,4.03
2022-07-25T14:16:45.371Z,4.33
2022-07-25T14:19:14.611Z,4.40
2022-07-25T14:21:42.557Z,4.38
2022-07-25T14:24:10.421Z,4.23
2022-07-25T14:26:38.286Z,4.07
2022-07-25T14:29:11.098Z,4.50
2022-07-25T14:31:40.580Z,4.70
2022-07-25T14:34:08.777Z,4.03
2022-07-25T14:36:37.988Z,3.90
2022-07-25T14:39:06.638Z,4.00
2022-07-25T14:41:35.249Z,3.93
2022-07-25T14:44:03.067Z,4.20
2022-07-25T14:46:31.098Z,3.90
2022-07-25T14:48:59.464Z,3.93
2022-07-25T14:51:28.517Z,3.67
2022-07-25T14:53:57.751Z,3.90
2022-07-25T14:56:25.940Z,3.90
2022-07-25T14:58:53.776Z,3.57
2022-07-25T15:01:24.391Z,3.90
2022-07-25T15:03:52.576Z,3.80
2022-07-25T15:06:21.248Z,3.60
2022-07-25T15:08:51.859Z,3.40
2022-07-25T15:11:21.737Z,3.40
2022-07-25T15:13:50.283Z,3.30
2022-07-25T15:16:18.410Z,3.70
2022-07-25T15:19:13.498Z,3.40
2022-07-25T15:21:34.614Z,3.40
2022-07-25T15:24:02.688Z,3.33
2022-07-25T15:26:32.370Z,3.60
2022-07-25T15:29:00.287Z,3.47
2022-07-25T15:31:28.611Z,3.67
2022-07-25T15:33:56.506Z,3.83
2022-07-25T15:36:29.124Z,3.40
2022-07-25T15:38:57.516Z,3.60
2022-07-25T15:41:26.532Z,3.33
2022-07-25T15:43:55.717Z,3.40
2022-07-25T15:46:23.666Z,3.50
2022-07-25T15:48:51.627Z,3.47
2022-07-25T15:51:20.035Z,3.70
2022-07-25T15:53:47.866Z,3.63
2022-07-25T15:56:16.095Z,3.63
2022-07-25T15:58:44.409Z,3.30
2022-07-25T16:01:13.674Z,3.20
2022-07-25T16:03:41.634Z,3.40
2022-07-25T16:06:10.037Z,3.40
2022-07-25T16:08:38.329Z,3.40
2022-07-25T16:11:06.473Z,3.40
2022-07-25T16:13:34.393Z,2.90
2022-07-25T16:16:02.277Z,3.00
2022-07-25T16:18:32.310Z,3.30
2022-07-25T16:21:00.133Z,3.37
2022-07-25T16:23:28.207Z,3.13
2022-07-25T16:25:56.052Z,3.60
2022-07-25T16:28:23.901Z,3.40
2022-07-25T16:30:52.141Z,3.20
2022-07-25T16:33:20.124Z,3.40
2022-07-25T16:35:49.711Z,3.83
2022-07-25T16:38:18.050Z,3.63
2022-07-25T16:40:45.943Z,3.13
2022-07-25T16:43:13.851Z,3.60
2022-07-25T16:45:43.082Z,3.73
2022-07-25T16:48:11.023Z,3.60
2022-07-25T16:50:38.856Z,4.00
2022-07-25T16:53:08.281Z,3.80
2022-07-25T16:55:36.171Z,3.53
2022-07-25T16:58:04.063Z,4.33
2022-07-25T17:00:32.738Z,4.18
2022-07-25T17:03:02.092Z,4.60
2022-07-25T17:05:30.016Z,4.17
2022-07-25T17:07:59.621Z,4.53
2022-07-25T17:10:31.491Z,4.10
2022-07-25T17:13:00.368Z,4.73
2022-07-25T17:15:28.362Z,4.67
2022-07-25T17:17:56.297Z,4.57
2022-07-25T17:20:24.467Z,4.60
2022-07-25T17:22:52.324Z,4.57
2022-07-25T17:25:20.253Z,5.00
2022-07-25T17:27:49.448Z,5.37
2022-07-25T17:30:17.314Z,4.90
2022-07-25T17:32:45.332Z,5.00
2022-07-25T17:35:13.393Z,5.30
2022-07-25T17:37:41.513Z,4.90
2022-07-25T17:40:10.796Z,5.10
2022-07-25T17:42:44.602Z,4.80
2022-07-25T17:45:15.337Z,4.50
2022-07-25T17:47:44.087Z,5.00
2022-07-25T17:50:12.531Z,4.90
2022-07-25T17:52:40.587Z,4.73
2022-07-25T17:55:09.030Z,5.03
2022-07-25T17:57:37.641Z,5.00
2022-07-25T18:00:06.701Z,4.67
2022-07-25T18:02:41.016Z,5.33
2022-07-25T18:05:09.585Z,5.07
2022-07-25T18:07:40.668Z,4.70
2022-07-25T18:10:09.013Z,5.37
2022-07-25T18:12:39.359Z,4.70
2022-07-25T18:15:08.537Z,5.00
2022-07-25T18:17:36.526Z,5.10
2022-07-25T18:20:06.372Z,5.10
2022-07-25T18:22:34.672Z,5.20
2022-07-25T18:25:02.670Z,5.40
2022-07-25T18:27:30.618Z,5.00
2022-07-25T18:29:58.588Z,5.57
2022-07-25T18:32:26.470Z,5.67
2022-07-25T18:34:54.365Z,5.20
2022-07-25T18:37:23.614Z,5.20
2022-07-25T18:39:51.524Z,5.77
2022-07-25T18:42:19.480Z,5.40
2022-07-25T18:44:47.469Z,5.53
2022-07-25T18:47:15.531Z,5.27
2022-07-25T18:49:43.395Z,5.33
2022-07-25T18:52:11.299Z,5.77
2022-07-25T18:54:40.610Z,6.17
2022-07-25T18:57:08.608Z,5.73
2022-07-25T18:59:37.047Z,6.03
2022-07-25T19:02:05.344Z,5.53
2022-07-25T19:04:33.331Z,5.83
2022-07-25T19:07:01.327Z,5.40
2022-07-25T19:09:29.232Z,5.67
2022-07-25T19:11:58.476Z,5.43
2022-07-25T19:14:27.381Z,5.30
2022-07-25T19:16:57.468Z,5.87
2022-07-25T19:19:25.959Z,5.93
2022-07-25T19:21:54.486Z,6.03
2022-07-25T19:24:22.914Z,5.87
2022-07-25T19:26:50.909Z,5.80
2022-07-25T19:29:20.985Z,5.80
2022-07-25T19:31:48.891Z,5.53
2022-07-25T19:34:16.760Z,5.53
2022-07-25T19:36:45.975Z,6.67
2022-07-25T19:39:14.540Z,6.17
2022-07-25T19:41:46.642Z,5.80
2022-07-25T19:44:15.275Z,6.43
2022-07-25T19:46:44.863Z,6.10
2022-07-25T19:49:13.203Z,5.87
2022-07-25T19:51:41.404Z,6.07
2022-07-25T19:54:10.005Z,5.83
2022-07-25T19:56:38.312Z,6.90
2022-07-25T19:59:06.540Z,6.20
2022-07-25T20:01:35.916Z,5.60
2022-07-25T20:04:09.070Z,5.40
2022-07-25T20:06:37.370Z,5.57
2022-07-25T20:09:06.797Z,5.47
2022-07-25T20:11:34.903Z,5.07
2022-07-25T20:14:02.751Z,5.43
2022-07-25T20:16:30.891Z,5.40
2022-07-25T20:19:00.222Z,5.50
2022-07-25T20:21:29.612Z,6.00
2022-07-25T20:23:57.677Z,6.13
2022-07-25T20:26:25.608Z,6.73
2022-07-25T20:28:53.806Z,6.03
2022-07-25T20:31:24.308Z,6.83
2022-07-25T20:33:52.687Z,6.40
2022-07-25T20:36:21.232Z,6.70
2022-07-25T20:38:51.136Z,6.60
2022-07-25T20:41:19.602Z,6.03
2022-07-25T20:43:47.485Z,7.03
2022-07-25T20:46:15.361Z,6.30
2022-07-25T20:48:43.357Z,6.20
2022-07-25T20:51:12.924Z,5.80
2022-07-25T20:53:41.816Z,6.60
2022-07-25T20:56:11.127Z,6.20
2022-07-25T20:58:39.663Z,6.13
2022-07-25T21:01:07.532Z,6.50
2022-07-25T21:03:36.030Z,6.13
2022-07-25T21:06:03.908Z,5.90
2022-07-25T21:08:31.779Z,5.57
2022-07-25T21:11:00.839Z,6.10
2022-07-25T21:13:31.574Z,6.13
2022-07-25T21:16:00.980Z,5.00
2022-07-25T21:18:28.970Z,5.37
2022-07-25T21:20:56.838Z,4.97
2022-07-25T21:23:26.331Z,5.60
2022-07-25T21:25:54.223Z,6.00
2022-07-25T21:28:22.115Z,6.40
2022-07-25T21:30:51.457Z,7.70
2022-07-25T21:33:19.297Z,7.80
2022-07-25T21:35:51.807Z,8.13
2022-07-25T21:38:26.653Z,7.63
2022-07-25T21:40:56.383Z,10.30
2022-07-25T21:43:24.255Z,8.33
2022-07-25T21:45:53.933Z,8.70
2022-07-25T21:48:43.871Z,8.70
2022-07-25T21:51:19.211Z,7.50
2022-07-25T21:53:51.402Z,7.33
2022-07-25T21:56:19.909Z,6.63
2022-07-25T21:58:48.063Z,6.70
2022-07-25T22:01:17.646Z,7.03
2022-07-25T22:03:45.628Z,7.23
2022-07-25T22:06:13.603Z,7.63
2022-07-25T22:08:41.441Z,7.30
2022-07-25T22:11:16.082Z,6.53
2022-07-25T22:13:57.914Z,6.77
2022-07-25T22:16:27.985Z,6.70
2022-07-25T22:18:57.142Z,6.93
2022-07-25T22:21:25.121Z,6.30
2022-07-25T22:23:52.938Z,6.63
2022-07-25T22:26:20.918Z,6.80
2022-07-25T22:28:50.638Z,6.77
2022-07-25T22:31:18.952Z,5.70
2022-07-25T22:33:48.221Z,5.40
2022-07-25T22:36:16.044Z,5.70
2022-07-25T22:38:43.942Z,6.23
2022-07-25T22:41:12.568Z,5.70
2022-07-25T22:43:58.773Z,5.17
2022-07-25T22:46:28.458Z,5.23
2022-07-25T22:48:58.769Z,4.80
2022-07-25T22:51:27.455Z,5.07
2022-07-25T22:53:55.333Z,6.30
2022-07-25T22:56:23.498Z,5.50
2022-07-25T22:58:51.334Z,5.80
2022-07-25T23:01:19.491Z,5.70
2022-07-25T23:03:49.781Z,5.17
2022-07-25T23:06:20.689Z,4.83
2022-07-25T23:08:48.985Z,4.73
2022-07-25T23:11:17.261Z,4.77
2022-07-25T23:13:45.294Z,4.40
2022-07-25T23:16:13.366Z,4.80
2022-07-25T23:18:41.295Z,4.57
2022-07-25T23:21:09.256Z,5.33
2022-07-25T23:23:38.513Z,5.27
2022-07-25T23:26:06.356Z,4.87
2022-07-25T23:28:34.184Z,5.53
2022-07-25T23:31:02.031Z,5.57
2022-07-25T23:33:30.110Z,5.33
2022-07-25T23:35:58.211Z,5.73
2022-07-25T23:38:26.364Z,4.93
2022-07-25T23:40:55.616Z,5.33
2022-07-25T23:43:40.848Z,5.87
2022-07-25T23:46:11.588Z,5.03
2022-07-25T23:48:39.572Z,4.70
2022-07-25T23:51:07.784Z,5.70
2022-07-25T23:53:36.368Z,5.07
2022-07-25T23:56:06.126Z,5.13
2022-07-25T23:58:34.022Z,5.50
